EDT,Max TemperatureF,Mean TemperatureF,Min TemperatureF,Max Dew PointF,MeanDew PointF,Min DewpointF,Max Humidity, Mean Humidity, Min Humidity, Max Sea Level PressureIn, Mean Sea Level PressureIn, Min Sea Level PressureIn, Max VisibilityMiles, Mean VisibilityMiles, Min VisibilityMiles, Max Wind SpeedMPH, Mean Wind SpeedMPH, Max Gust SpeedMPH,PrecipitationIn, CloudCover, Events, WindDirDegrees
2012-9-1,89,80,71,77,75,72,100,89,62,30.09,30.05,30.03,10,10,5,9,2,,0.02,3,Rain,283
2012-9-2,86,78,69,75,72,69,100,95,70,30.09,30.05,30.01,10,8,4,12,3,,0.00,3,Rain,144
2012-9-3,82,77,72,77,74,72,100,98,79,30.10,30.07,30.05,10,7,3,8,3,,0.00,6,Rain,142
2012-9-4,89,82,74,79,75,73,100,92,62,30.07,30.01,29.92,10,6,1,15,3,18,0.00,5,Rain,204
2012-9-5,86,82,77,78,76,73,100,87,74,29.92,29.88,29.83,10,10,10,15,9,18,0.00,4,,225
2012-9-6,80,73,66,77,73,66,100,98,83,29.98,29.91,29.87,10,7,3,12,1,,0.00,5,Rain,124
2012-9-7,86,75,64,73,68,64,100,90,51,29.99,29.95,29.88,10,9,5,10,2,,0.00,0,,195
2012-9-8,86,75,64,75,71,64,100,95,66,29.91,29.82,29.65,10,8,2,16,6,23,0.00,5,Rain,183
2012-9-9,77,69,61,68,61,55,100,84,47,29.96,29.89,29.84,10,10,10,9,2,,0.00,4,Rain,3
2012-9-10,75,66,57,59,55,48,94,74,41,30.20,30.06,29.97,10,10,10,14,6,23,0.00,1,,356
2012-9-11,75,62,50,55,52,48,100,77,41,30.35,30.28,30.20,10,10,10,9,1,,0.00,1,,7
2012-9-12,80,66,53,63,57,54,100,85,42,30.41,30.36,30.34,10,10,10,8,1,,0.00,0,,225
2012-9-13,82,68,55,64,58,55,100,85,39,30.42,30.38,30.32,10,10,10,6,1,,0.00,0,,136
2012-9-14,80,69,58,68,62,58,100,90,54,30.32,30.26,30.16,10,10,7,9,1,,0.00,2,,246
2012-9-15,73,64,56,66,59,50,100,82,46,30.24,30.17,30.12,10,10,7,15,4,21,0.00,1,,351
2012-9-16,77,64,52,61,56,53,100,87,44,30.19,30.16,30.11,10,10,5,6,1,,0.00,2,,283
2012-9-17,77,65,53,68,60,54,100,90,65,30.16,30.12,30.04,10,10,10,9,2,,0.00,4,Fog-Rain,192
2012-9-18,78,72,66,75,70,66,100,98,78,30.03,29.85,29.71,10,8,1,23,10,37,0.12,7,Rain,192
2012-9-19,71,62,53,68,56,50,100,77,46,30.20,30.02,29.83,10,10,10,14,7,25,0.01,6,Rain,346
2012-9-20,77,63,49,58,53,48,100,84,44,30.21,30.17,30.12,10,10,7,6,1,,0.00,2,,112
2012-9-21,77,65,53,65,58,54,100,87,50,30.13,30.09,30.02,10,10,10,7,1,,0.00,0,,158
2012-9-22,82,72,62,68,65,60,100,86,58,30.02,29.95,29.85,10,10,10,15,7,23,0.00,1,,187
2012-9-23,69,60,50,59,50,45,97,66,46,30.19,30.09,29.95,10,10,5,14,6,21,0.00,1,,345
2012-9-24,69,58,46,50,47,41,100,80,40,30.26,30.20,30.18,10,10,10,9,1,,0.00,1,,337
2012-9-25,75,62,50,59,53,48,100,80,47,30.26,30.21,30.15,10,10,10,15,4,20,0.00,1,,196
2012-9-26,82,72,63,68,61,55,92,72,54,30.18,30.15,30.11,10,10,10,13,8,21,0.00,2,,218
2012-9-27,86,76,66,68,66,63,100,85,48,30.21,30.15,30.12,10,10,10,8,4,,0.00,2,,243
2012-9-28,82,72,62,70,66,62,100,92,58,30.13,30.07,30.00,10,8,5,12,1,,0.05,3,Rain,294
2012-9-29,68,60,53,63,57,52,100,88,56,30.03,30.00,29.95,10,10,7,10,1,,0.00,4,,337
2012-9-30,73,62,51,70,54,50,100,85,44,29.95,29.92,29.84,10,10,10,10,1,17,0.00,1,,284